Time;durP1;ratioP1;P1;durP2;ratioP2;P2;SDS_P1;SDS_P2;PMS_P1;PMS_P2;Temp;Humidity;BMP_temperature;BMP_pressure;BME280_temperature;BME280_humidity;BME280_pressure;Samples;Min_cycle;Max_cycle;Signal;HPM_P1;HPM_P2
2020/12/16 00:00:03;;;;;;;9.07;7.33;;;27.10;86.20;;;;;;5073567;28;20456;-87
2020/12/16 00:02:30;;;;;;;8.93;7.70;;;27.10;86.70;;;;;;5070986;28;21516;-87
2020/12/16 00:04:59;;;;;;;9.52;7.50;;;27.00;88.70;;;;;;5071313;28;20370;-90
2020/12/16 00:07:29;;;;;;;10.98;7.82;;;27.10;90.30;;;;;;5071440;28;20939;-87
2020/12/16 00:09:56;;;;;;;7.78;6.97;;;27.20;87.40;;;;;;5071345;28;20374;-89
2020/12/16 00:12:23;;;;;;;7.75;6.90;;;27.30;86.70;;;;;;5071604;28;20379;-88
2020/12/16 00:14:51;;;;;;;9.00;8.20;;;26.90;84.80;;;;;;5070910;28;20394;-87
2020/12/16 00:17:18;;;;;;;9.02;8.23;;;26.70;88.90;;;;;;5070727;28;20850;-87
2020/12/16 00:19:45;;;;;;;9.60;8.38;;;26.60;87.80;;;;;;5070914;28;20881;-88
2020/12/16 00:22:12;;;;;;;8.98;8.07;;;27.30;87.70;;;;;;5071525;28;20374;-89
2020/12/16 00:24:39;;;;;;;8.35;7.60;;;27.90;82.00;;;;;;5070915;28;20799;-89
2020/12/16 00:27:11;;;;;;;7.63;6.93;;;27.90;80.70;;;;;;5070981;28;20382;-89
2020/12/16 00:29:39;;;;;;;7.35;6.65;;;27.90;81.60;;;;;;5071156;28;20378;-89
2020/12/16 00:32:06;;;;;;;7.15;6.13;;;28.20;82.90;;;;;;5071267;28;20465;-89
2020/12/16 00:34:33;;;;;;;8.45;7.05;;;28.00;79.80;;;;;;5071526;28;20385;-89
2020/12/16 00:37:00;;;;;;;6.70;6.20;;;28.40;83.90;;;;;;5070576;28;20386;-89
2020/12/16 00:39:27;;;;;;;6.63;6.03;;;28.30;78.20;;;;;;5070562;28;20450;-89
2020/12/16 00:41:54;;;;;;;6.38;5.78;;;27.70;80.30;;;;;;5070088;28;20382;-88
2020/12/16 00:44:21;;;;;;;5.85;5.32;;;27.20;83.00;;;;;;5071006;28;20362;-87
2020/12/16 00:46:48;;;;;;;5.50;5.10;;;27.00;84.50;;;;;;5069996;28;20390;-88
2020/12/16 00:49:15;;;;;;;5.75;5.32;;;27.00;83.70;;;;;;5070440;28;20370;-88
2020/12/16 00:51:42;;;;;;;7.13;5.90;;;26.80;85.00;;;;;;5071416;28;20773;-89
2020/12/16 00:54:09;;;;;;;6.90;6.35;;;26.80;85.30;;;;;;5069966;28;20366;-88
2020/12/16 00:56:36;;;;;;;6.82;6.13;;;27.10;85.90;;;;;;5069987;28;20944;-88
2020/12/16 00:59:03;;;;;;;7.90;6.28;;;27.30;85.00;;;;;;5069721;28;20397;-87
2020/12/16 01:01:30;;;;;;;6.72;6.13;;;27.20;85.00;;;;;;5069633;28;20412;-86
2020/12/16 01:03:57;;;;;;;7.38;6.80;;;27.20;87.10;;;;;;5069713;28;20430;-86
2020/12/16 01:06:24;;;;;;;6.38;5.05;;;27.70;85.60;;;;;;5069606;28;20382;-86
2020/12/16 01:08:51;;;;;;;6.15;5.28;;;27.70;82.30;;;;;;5071178;28;20414;-85
2020/12/16 01:11:18;;;;;;;7.20;6.20;;;27.30;81.80;;;;;;5070185;28;20386;-84
2020/12/16 01:13:45;;;;;;;7.10;6.28;;;27.10;86.70;;;;;;5063675;28;20796;-84
2020/12/16 01:16:12;;;;;;;7.57;6.30;;;26.80;87.30;;;;;;5069157;28;20413;-85
2020/12/16 01:18:39;;;;;;;6.20;5.60;;;26.80;88.40;;;;;;5069212;28;20918;-85
2020/12/16 01:21:06;;;;;;;5.60;5.00;;;26.70;88.90;;;;;;5067565;28;20964;-86
2020/12/16 01:23:33;;;;;;;6.22;5.47;;;26.70;86.40;;;;;;5069626;28;20373;-84
2020/12/16 01:26:00;;;;;;;7.82;6.43;;;26.50;88.10;;;;;;5069412;28;20956;-84
2020/12/16 01:28:27;;;;;;;7.50;5.40;;;26.40;89.90;;;;;;5055869;28;20470;-84
2020/12/16 01:30:54;;;;;;;9.70;5.68;;;26.30;90.60;;;;;;5049451;28;20384;-86
2020/12/16 01:33:21;;;;;;;10.13;5.35;;;26.20;89.80;;;;;;5049923;28;20377;-84
2020/12/16 01:35:48;;;;;;;8.07;5.85;;;26.20;90.20;;;;;;5052353;28;20368;-85
2020/12/16 01:38:15;;;;;;;9.05;5.50;;;26.80;90.00;;;;;;5066080;28;20472;-85
2020/12/16 01:40:42;;;;;;;8.60;5.68;;;27.10;87.50;;;;;;5071461;28;20814;-86
2020/12/16 01:43:09;;;;;;;10.20;5.07;;;27.20;87.30;;;;;;5071438;28;20366;-85
2020/12/16 01:45:36;;;;;;;9.02;4.88;;;27.30;88.80;;;;;;5071170;28;20422;-87
2020/12/16 01:48:03;;;;;;;10.90;4.40;;;27.50;88.70;;;;;;5071158;28;20718;-87
2020/12/16 01:50:31;;;;;;;12.13;4.93;;;27.50;87.90;;;;;;5054707;28;20395;-84
2020/12/16 01:52:59;;;;;;;11.07;4.28;;;27.50;89.30;;;;;;5061775;28;20387;-83
2020/12/16 01:55:27;;;;;;;10.98;4.20;;;27.40;88.30;;;;;;5062245;28;20434;-84
2020/12/16 01:58:03;;;;;;;10.18;4.68;;;27.10;88.70;;;;;;5074849;28;20397;-83
2020/12/16 02:00:31;;;;;;;9.93;4.50;;;27.10;87.10;;;;;;5076737;28;20523;-84
2020/12/16 02:03:00;;;;;;;9.25;4.30;;;27.40;89.10;;;;;;5060002;28;20371;-85
2020/12/16 02:05:29;;;;;;;7.35;3.75;;;27.40;86.30;;;;;;5059263;28;20379;-86
2020/12/16 02:07:57;;;;;;;10.00;4.07;;;27.30;88.10;;;;;;5038220;28;22336;-85
2020/12/16 02:10:24;;;;;;;8.07;3.72;;;27.20;87.60;;;;;;5053732;28;20474;-84
2020/12/16 02:12:51;;;;;;;8.45;3.90;;;27.10;87.40;;;;;;5060266;28;20374;-85
2020/12/16 02:15:18;;;;;;;11.27;3.97;;;26.90;87.60;;;;;;5061031;28;20770;-88
2020/12/16 02:17:46;;;;;;;6.50;3.67;;;26.60;89.40;;;;;;5052461;28;20383;-87
2020/12/16 02:20:13;;;;;;;8.05;4.00;;;26.60;88.50;;;;;;5052081;28;20411;-87
2020/12/16 02:22:41;;;;;;;9.00;3.95;;;26.70;89.50;;;;;;5053060;28;20368;-87
2020/12/16 02:25:11;;;;;;;8.07;3.58;;;26.70;88.60;;;;;;5053730;28;20395;-86
2020/12/16 02:27:41;;;;;;;8.70;3.65;;;26.50;90.20;;;;;;5057812;28;20382;-86
2020/12/16 02:30:11;;;;;;;8.37;3.50;;;26.40;90.20;;;;;;5054341;28;20525;-86
2020/12/16 02:32:39;;;;;;;6.57;3.55;;;26.20;90.20;;;;;;5070825;28;20374;-85
2020/12/16 02:35:07;;;;;;;8.75;3.75;;;26.10;90.30;;;;;;5060230;28;20395;-86
2020/12/16 02:37:35;;;;;;;7.43;2.70;;;26.10;90.90;;;;;;5063108;28;20375;-88
2020/12/16 02:40:03;;;;;;;9.82;3.40;;;26.30;91.00;;;;;;5052454;28;20418;-85
2020/12/16 02:42:30;;;;;;;11.40;3.30;;;26.60;90.90;;;;;;5052885;28;20391;-86
2020/12/16 02:44:58;;;;;;;8.77;3.17;;;26.50;89.80;;;;;;5064622;28;20387;-86
2020/12/16 02:47:25;;;;;;;7.68;2.65;;;26.40;90.50;;;;;;5055618;28;20406;-87
2020/12/16 02:49:53;;;;;;;8.25;2.83;;;26.10;90.00;;;;;;5064332;28;20728;-85
2020/12/16 02:52:20;;;;;;;11.25;2.78;;;25.80;91.00;;;;;;5055570;28;20430;-85
2020/12/16 02:54:47;;;;;;;9.30;2.47;;;26.00;91.40;;;;;;5062423;28;20879;-85
2020/12/16 02:57:14;;;;;;;5.88;1.88;;;26.10;90.00;;;;;;5058189;28;20376;-86
2020/12/16 02:59:57;;;;;;;4.97;2.13;;;25.90;89.90;;;;;;5052931;28;20728;-88
2020/12/16 03:02:24;;;;;;;5.00;1.55;;;25.90;92.30;;;;;;5058267;28;20388;-86
2020/12/16 03:04:53;;;;;;;3.97;1.50;;;26.30;90.10;;;;;;5052032;28;20397;-86
2020/12/16 03:07:21;;;;;;;6.82;1.60;;;26.00;88.90;;;;;;5065269;28;20894;-86
2020/12/16 03:09:48;;;;;;;8.98;2.20;;;25.20;91.10;;;;;;5051540;28;20383;-84
2020/12/16 03:12:15;;;;;;;8.23;2.10;;;24.80;92.30;;;;;;5053508;28;20392;-85
2020/12/16 03:14:43;;;;;;;5.47;1.85;;;24.60;92.80;;;;;;5061655;28;20890;-86
2020/12/16 03:17:10;;;;;;;8.02;2.35;;;24.40;93.50;;;;;;5052931;28;20470;-85
2020/12/16 03:19:37;;;;;;;12.10;2.40;;;24.40;93.80;;;;;;5051598;28;20798;-86
2020/12/16 03:22:04;;;;;;;10.27;2.22;;;24.20;94.20;;;;;;5051463;28;20462;-82
2020/12/16 03:24:31;;;;;;;11.35;2.80;;;24.20;94.20;;;;;;5052086;28;20875;-84
2020/12/16 03:26:58;;;;;;;10.20;2.38;;;24.10;94.40;;;;;;5066280;28;20390;-86
2020/12/16 03:29:25;;;;;;;14.63;2.90;;;24.00;94.50;;;;;;5071485;28;20406;-84
2020/12/16 03:31:52;;;;;;;15.37;3.03;;;23.80;95.10;;;;;;5069634;28;20396;-87
2020/12/16 03:34:21;;;;;;;12.32;2.60;;;23.60;95.90;;;;;;5037862;28;20402;-86
2020/12/16 03:36:48;;;;;;;12.52;2.92;;;23.50;96.10;;;;;;5041262;28;20867;-86
2020/12/16 03:39:15;;;;;;;14.60;2.95;;;23.50;96.20;;;;;;5039671;28;20409;-90
2020/12/16 03:41:42;;;;;;;15.48;3.03;;;23.50;96.30;;;;;;5049722;28;20398;-88
2020/12/16 03:44:09;;;;;;;12.73;3.20;;;23.40;96.50;;;;;;5053213;28;20863;-87
2020/12/16 03:46:36;;;;;;;16.90;2.72;;;23.30;96.90;;;;;;5045236;28;20409;-86
2020/12/16 03:49:04;;;;;;;17.20;2.80;;;23.50;96.80;;;;;;5032292;28;20924;-87
2020/12/16 03:51:31;;;;;;;17.45;3.08;;;23.60;96.50;;;;;;5027272;28;20514;-86
2020/12/16 03:53:58;;;;;;;12.15;3.08;;;23.70;96.60;;;;;;5043263;28;20392;-84
2020/12/16 03:56:27;;;;;;;15.65;2.95;;;23.70;96.30;;;;;;5041256;28;20397;-87
2020/12/16 03:58:54;;;;;;;13.77;3.35;;;23.80;96.50;;;;;;5036888;28;20384;-87
2020/12/16 04:01:21;;;;;;;16.90;3.60;;;23.70;96.80;;;;;;5047594;28;20426;-88
2020/12/16 04:03:48;;;;;;;17.75;3.50;;;23.70;96.60;;;;;;5039319;28;20397;-87
2020/12/16 04:06:16;;;;;;;16.15;3.42;;;23.60;96.70;;;;;;5048277;28;20393;-87
2020/12/16 04:08:46;;;;;;;14.55;3.10;;;23.80;97.30;;;;;;5069986;28;20453;-86
2020/12/16 04:11:16;;;;;;;18.40;3.50;;;24.00;96.00;;;;;;5071924;28;20417;-85
2020/12/16 04:13:43;;;;;;;16.80;4.07;;;24.10;95.90;;;;;;5032648;28;20385;-87
2020/12/16 04:16:19;;;;;;;16.60;3.60;;;24.50;95.60;;;;;;5031858;28;20859;-87
2020/12/16 04:18:47;;;;;;;15.98;3.50;;;24.60;94.40;;;;;;5032281;28;20385;-86
2020/12/16 04:21:17;;;;;;;15.65;3.65;;;24.50;95.50;;;;;;5063816;28;21001;-88
2020/12/16 04:23:44;;;;;;;15.82;3.65;;;24.40;95.10;;;;;;5069311;28;20884;-86
2020/12/16 04:26:11;;;;;;;16.58;3.50;;;24.30;95.20;;;;;;5069709;28;20390;-89
2020/12/16 04:28:38;;;;;;;15.20;3.45;;;24.00;95.80;;;;;;5071126;28;20465;-90
2020/12/16 04:31:09;;;;;;;16.77;3.65;;;23.80;95.80;;;;;;5054473;28;20449;-90
2020/12/16 04:33:36;;;;;;;18.27;3.58;;;23.70;96.20;;;;;;5051668;28;20657;-87
2020/12/16 04:36:07;;;;;;;18.13;4.25;;;23.50;96.60;;;;;;5061664;28;20384;-88
2020/12/16 04:38:34;;;;;;;21.40;4.10;;;23.40;97.10;;;;;;5047919;28;20395;-88
2020/12/16 04:41:01;;;;;;;19.03;3.77;;;23.30;97.40;;;;;;5055600;28;20781;-87
2020/12/16 04:43:30;;;;;;;21.15;4.82;;;23.30;97.40;;;;;;5061930;28;20944;-88
2020/12/16 04:45:57;;;;;;;27.23;4.68;;;23.30;97.50;;;;;;5051704;28;20442;-88
2020/12/16 04:48:25;;;;;;;22.92;4.47;;;23.30;97.50;;;;;;5057983;28;20516;-89
2020/12/16 04:50:52;;;;;;;20.17;4.18;;;23.30;97.60;;;;;;5053210;28;20374;-88
2020/12/16 04:53:20;;;;;;;19.10;4.13;;;23.20;97.70;;;;;;5060155;28;20434;-89
2020/12/16 04:55:48;;;;;;;23.67;4.50;;;23.30;98.00;;;;;;5066032;28;20386;-88
2020/12/16 04:58:15;;;;;;;21.08;4.25;;;23.20;97.80;;;;;;5070972;28;20386;-88
2020/12/16 05:00:42;;;;;;;24.40;4.77;;;23.30;97.60;;;;;;5070655;28;20413;-88
2020/12/16 05:03:10;;;;;;;23.73;4.53;;;23.30;97.50;;;;;;5071457;28;20370;-88
2020/12/16 05:05:38;;;;;;;22.27;4.38;;;23.20;97.60;;;;;;5071181;28;20869;-88
2020/12/16 05:08:13;;;;;;;23.15;4.22;;;23.20;97.50;;;;;;5070975;28;20776;-88
2020/12/16 05:10:45;;;;;;;25.05;4.65;;;23.30;97.40;;;;;;5063855;28;21202;-89
2020/12/16 05:13:18;;;;;;;25.50;4.93;;;23.20;97.60;;;;;;5050116;28;20392;-90
2020/12/16 05:15:47;;;;;;;25.40;4.73;;;23.20;97.50;;;;;;5053016;28;20388;-89
2020/12/16 05:18:19;;;;;;;21.75;4.25;;;23.20;97.50;;;;;;5050905;28;20475;-94
2020/12/16 05:20:57;;;;;;;21.00;5.00;;;23.10;97.50;;;;;;5056908;28;20402;-89
2020/12/16 05:23:35;;;;;;;28.45;4.78;;;23.00;97.60;;;;;;5058966;28;20390;-86
2020/12/16 05:26:10;;;;;;;20.73;4.18;;;23.00;97.90;;;;;;5058155;28;20405;-85
2020/12/16 05:28:39;;;;;;;19.02;3.72;;;23.00;97.90;;;;;;5031599;28;20746;-87
2020/12/16 05:31:08;;;;;;;26.77;4.45;;;23.00;97.60;;;;;;5051002;28;20407;-87
2020/12/16 05:33:46;;;;;;;20.80;3.95;;;23.00;97.70;;;;;;5049176;28;20439;-87
2020/12/16 05:36:26;;;;;;;23.30;4.10;;;22.90;97.80;;;;;;5050989;28;20384;-86
2020/12/16 05:38:55;;;;;;;28.85;4.68;;;22.90;97.80;;;;;;5063977;28;20386;-94
2020/12/16 05:41:29;;;;;;;26.38;4.70;;;22.90;97.90;;;;;;5051907;28;20884;-87
2020/12/16 05:44:17;;;;;;;26.48;4.50;;;22.90;98.00;;;;;;5070031;28;20458;-89
2020/12/16 05:46:47;;;;;;;26.13;4.78;;;22.90;97.80;;;;;;5052567;28;20406;-86
2020/12/16 05:49:31;;;;;;;26.38;4.45;;;22.80;98.00;;;;;;5069793;28;20385;-88
2020/12/16 05:51:58;;;;;;;18.38;3.67;;;22.80;98.10;;;;;;5074458;28;20392;-88
2020/12/16 05:54:26;;;;;;;18.58;3.67;;;22.80;98.00;;;;;;5070846;28;20516;-88
2020/12/16 05:57:24;;;;;;;21.60;3.83;;;22.80;97.90;;;;;;5069186;28;20374;-88
2020/12/16 06:00:12;;;;;;;22.85;4.30;;;22.80;97.90;;;;;;5048247;28;20737;-89
2020/12/16 06:02:42;;;;;;;20.60;4.07;;;22.80;98.10;;;;;;5029387;28;20390;-88
2020/12/16 06:05:12;;;;;;;22.67;4.27;;;22.90;98.10;;;;;;5030044;28;20369;-86
2020/12/16 06:07:41;;;;;;;18.85;3.60;;;22.90;97.90;;;;;;5029870;28;20393;-88
2020/12/16 06:10:09;;;;;;;21.30;3.90;;;22.90;97.90;;;;;;5029741;28;20861;-85
2020/12/16 06:12:39;;;;;;;20.73;3.90;;;22.90;98.00;;;;;;5029501;28;20389;-87
2020/12/16 06:15:09;;;;;;;29.00;4.00;;;22.90;98.00;;;;;;5029172;28;20381;-89
2020/12/16 06:17:47;;;;;;;19.77;3.78;;;22.90;98.00;;;;;;5040046;28;20388;-86
2020/12/16 06:20:17;;;;;;;20.08;3.63;;;22.90;97.90;;;;;;5049532;28;21004;-88
2020/12/16 06:22:46;;;;;;;19.73;3.70;;;22.90;97.70;;;;;;5049381;28;20372;-87
2020/12/16 06:25:15;;;;;;;17.90;3.40;;;23.00;97.80;;;;;;5032026;28;21733;-88
2020/12/16 06:27:44;;;;;;;20.67;4.10;;;23.00;97.90;;;;;;5049258;28;20364;-88
2020/12/16 06:30:37;;;;;;;17.00;3.67;;;23.00;97.70;;;;;;5049352;28;20395;-86
2020/12/16 06:33:20;;;;;;;22.33;3.25;;;23.00;97.70;;;;;;5031951;28;20383;-88
2020/12/16 06:35:49;;;;;;;19.02;3.42;;;23.00;97.90;;;;;;5050057;28;20365;-91
2020/12/16 06:38:22;;;;;;;18.77;3.65;;;23.00;98.00;;;;;;5049730;28;20875;-89
2020/12/16 06:40:55;;;;;;;16.37;3.10;;;23.00;97.70;;;;;;5031663;28;20411;-87
2020/12/16 06:43:37;;;;;;;21.27;3.60;;;23.00;97.70;;;;;;5049271;28;20407;-88
2020/12/16 06:46:27;;;;;;;18.17;3.70;;;23.00;97.60;;;;;;5053048;28;20481;-88
2020/12/16 06:48:54;;;;;;;20.35;3.88;;;23.00;97.50;;;;;;5052367;28;20874;-86
2020/12/16 06:51:27;;;;;;;19.13;3.65;;;22.90;97.60;;;;;;5050190;28;20397;-86
2020/12/16 06:54:06;;;;;;;18.65;3.45;;;22.90;97.70;;;;;;5051726;28;20399;-85
2020/12/16 06:56:34;;;;;;;20.35;3.80;;;22.90;97.60;;;;;;5053068;28;20479;-88
2020/12/16 06:59:01;;;;;;;22.33;4.35;;;23.00;97.50;;;;;;5041971;28;20413;-87
2020/12/16 07:01:28;;;;;;;22.73;4.15;;;23.00;97.40;;;;;;5049013;28;20415;-87
2020/12/16 07:03:55;;;;;;;21.40;4.05;;;23.00;97.40;;;;;;5053212;28;20763;-89
2020/12/16 07:06:28;;;;;;;21.70;4.23;;;22.90;97.60;;;;;;5051683;28;20539;-87
2020/12/16 07:09:18;;;;;;;22.07;4.00;;;22.90;97.70;;;;;;5071188;28;20386;-86
2020/12/16 07:11:47;;;;;;;19.30;3.85;;;22.90;97.70;;;;;;5042595;28;20438;-86
2020/12/16 07:14:18;;;;;;;20.95;3.83;;;22.90;97.70;;;;;;5063706;28;20431;-87
2020/12/16 07:16:46;;;;;;;26.25;4.22;;;22.90;97.70;;;;;;5051864;28;20376;-87
2020/12/16 07:19:15;;;;;;;30.38;4.95;;;22.90;97.60;;;;;;5053471;28;20476;-87
2020/12/16 07:21:45;;;;;;;27.92;4.90;;;22.90;97.60;;;;;;5047886;28;21671;-87
2020/12/16 07:24:14;;;;;;;34.30;5.32;;;22.80;97.40;;;;;;5051090;28;20395;-87
2020/12/16 07:26:50;;;;;;;33.55;5.25;;;22.70;97.40;;;;;;5038813;28;20390;-88
2020/12/16 07:29:28;;;;;;;31.25;5.60;;;22.70;97.60;;;;;;5046723;28;20497;-86
2020/12/16 07:32:06;;;;;;;30.10;5.43;;;22.60;97.60;;;;;;5041554;28;20938;-85
2020/12/16 07:34:44;;;;;;;27.10;5.38;;;22.60;97.80;;;;;;5049567;28;20987;-85
2020/12/16 07:37:13;;;;;;;28.27;5.53;;;22.60;97.70;;;;;;5050937;28;20462;-86
2020/12/16 07:39:57;;;;;;;30.55;5.22;;;22.50;97.90;;;;;;5050603;28;20747;-86
2020/12/16 07:42:27;;;;;;;32.33;6.10;;;22.50;98.00;;;;;;5034045;28;20514;-84
2020/12/16 07:44:56;;;;;;;32.03;5.15;;;22.50;98.00;;;;;;5051361;28;20367;-87
2020/12/16 07:47:24;;;;;;;31.77;5.90;;;22.40;97.90;;;;;;5051187;28;20387;-87
2020/12/16 07:49:51;;;;;;;32.67;6.10;;;22.30;97.90;;;;;;5047490;28;20438;-88
2020/12/16 07:52:30;;;;;;;31.42;5.65;;;22.30;98.00;;;;;;5047136;28;20408;-86
2020/12/16 07:54:57;;;;;;;31.67;5.80;;;22.30;98.10;;;;;;5043911;28;20480;-85
2020/12/16 07:57:35;;;;;;;33.45;5.80;;;22.30;98.10;;;;;;5030862;28;20455;-85
2020/12/16 08:00:04;;;;;;;35.38;6.30;;;22.30;98.20;;;;;;5031883;28;20424;-85
2020/12/16 08:02:32;;;;;;;37.42;6.90;;;22.20;97.90;;;;;;5051122;28;20408;-85
2020/12/16 08:05:03;;;;;;;36.45;6.63;;;22.20;98.00;;;;;;5046727;28;20469;-84
2020/12/16 08:07:31;;;;;;;28.58;5.80;;;22.10;98.20;;;;;;5039473;28;20433;-85
2020/12/16 08:10:06;;;;;;;32.47;6.30;;;22.00;98.40;;;;;;5033116;28;20396;-86
2020/12/16 08:12:43;;;;;;;33.40;5.55;;;21.90;98.50;;;;;;5033583;28;20394;-85
2020/12/16 08:15:13;;;;;;;34.10;6.25;;;21.80;98.60;;;;;;5035649;28;20383;-86
2020/12/16 08:17:41;;;;;;;32.95;5.45;;;21.70;98.70;;;;;;5049961;28;20907;-86
2020/12/16 08:20:09;;;;;;;34.70;5.50;;;21.70;99.10;;;;;;5063301;28;20895;-85
2020/12/16 08:22:37;;;;;;;31.52;5.50;;;21.60;99.30;;;;;;5050126;28;20396;-87
2020/12/16 08:25:08;;;;;;;35.05;6.07;;;21.60;99.10;;;;;;5047299;28;20450;-86
2020/12/16 08:27:42;;;;;;;38.42;6.68;;;21.50;99.50;;;;;;5030795;28;20483;-88
2020/12/16 08:30:11;;;;;;;39.40;6.63;;;21.50;99.50;;;;;;5025846;28;20501;-86
2020/12/16 08:32:58;;;;;;;32.60;5.80;;;21.40;99.90;;;;;;5066105;28;20386;-91
2020/12/16 08:35:51;;;;;;;39.55;6.03;;;21.40;99.90;;;;;;5040398;28;20454;-87
2020/12/16 08:38:40;;;;;;;28.98;5.25;;;21.40;99.90;;;;;;5041010;28;20498;-89
2020/12/16 08:41:09;;;;;;;39.22;6.07;;;21.40;99.90;;;;;;5044315;28;20419;-89
2020/12/16 08:43:39;;;;;;;34.30;5.50;;;21.30;99.90;;;;;;5045376;28;20429;-88
2020/12/16 08:46:14;;;;;;;40.97;5.90;;;21.30;99.90;;;;;;5046889;28;20412;-87
2020/12/16 08:48:48;;;;;;;38.92;5.60;;;21.30;99.90;;;;;;5046620;28;20375;-88
2020/12/16 08:51:21;;;;;;;38.15;6.45;;;21.30;99.90;;;;;;5032241;28;20779;-86
2020/12/16 08:53:58;;;;;;;40.60;6.30;;;21.20;99.90;;;;;;5045192;28;20486;-86
2020/12/16 08:56:44;;;;;;;36.42;6.28;;;21.20;99.90;;;;;;5046584;28;20442;-87
2020/12/16 08:59:17;;;;;;;39.08;6.15;;;21.20;99.90;;;;;;5047028;28;20395;-88
2020/12/16 09:01:46;;;;;;;37.93;5.73;;;21.10;99.90;;;;;;5056074;28;20662;-89
2020/12/16 09:04:25;;;;;;;40.30;6.57;;;21.10;99.90;;;;;;5052249;28;20393;-87
2020/12/16 09:07:24;;;;;;;35.38;5.43;;;21.10;99.90;;;;;;5045818;28;20756;-86
2020/12/16 09:09:58;;;;;;;40.50;6.47;;;21.10;99.90;;;;;;5027827;28;20874;-87
2020/12/16 09:12:26;;;;;;;38.60;5.70;;;21.10;99.90;;;;;;5039866;28;20405;-89
2020/12/16 09:14:56;;;;;;;41.30;6.70;;;21.10;99.90;;;;;;5044909;28;20925;-87
2020/12/16 09:17:29;;;;;;;37.40;6.13;;;21.10;99.90;;;;;;5041197;28;20395;-87
2020/12/16 09:19:57;;;;;;;39.85;6.32;;;21.10;99.90;;;;;;5058109;28;20900;-88
2020/12/16 09:22:28;;;;;;;47.55;6.53;;;21.10;99.90;;;;;;5053562;28;20473;-85
2020/12/16 09:24:57;;;;;;;42.08;6.32;;;21.10;99.90;;;;;;5046327;28;20856;-88
2020/12/16 09:27:24;;;;;;;43.90;6.70;;;21.10;99.90;;;;;;5028313;28;20397;-87
2020/12/16 09:29:51;;;;;;;45.57;6.47;;;21.10;99.90;;;;;;5039322;28;20461;-85
2020/12/16 09:32:20;;;;;;;41.50;6.90;;;21.10;99.90;;;;;;5045869;28;20384;-85
2020/12/16 09:34:50;;;;;;;47.83;6.47;;;21.10;99.90;;;;;;5066022;28;20378;-87
2020/12/16 09:37:35;;;;;;;44.17;6.80;;;21.10;99.90;;;;;;5055768;28;20756;-86
2020/12/16 09:40:10;;;;;;;42.22;6.80;;;21.10;99.90;;;;;;5046064;28;20855;-84
2020/12/16 09:42:38;;;;;;;47.08;6.70;;;21.10;99.90;;;;;;5046127;28;20384;-89
2020/12/16 09:45:20;;;;;;;40.55;6.63;;;21.10;99.90;;;;;;5044822;28;20415;-89
2020/12/16 09:47:50;;;;;;;35.10;5.60;;;21.10;99.90;;;;;;5044152;28;20411;-90
2020/12/16 09:50:26;;;;;;;38.13;6.40;;;21.10;99.90;;;;;;5045730;28;20465;-88
2020/12/16 09:53:02;;;;;;;38.58;5.97;;;21.10;99.90;;;;;;5046303;28;20975;-90
2020/12/16 09:55:31;;;;;;;43.55;6.28;;;21.10;99.90;;;;;;5028662;28;20410;-87
2020/12/16 09:58:06;;;;;;;29.15;5.40;;;21.10;99.90;;;;;;5050365;28;20446;-88
2020/12/16 10:00:36;;;;;;;41.90;6.07;;;21.10;99.90;;;;;;5046651;28;20973;-87
2020/12/16 10:03:18;;;;;;;43.20;5.88;;;21.20;99.90;;;;;;5054312;28;20406;-87
2020/12/16 10:05:45;;;;;;;44.60;6.50;;;21.10;99.90;;;;;;5034772;28;20466;-85
2020/12/16 10:08:15;;;;;;;43.40;6.87;;;21.10;99.90;;;;;;5038220;28;20602;-89
2020/12/16 10:10:44;;;;;;;40.67;6.07;;;21.10;99.90;;;;;;5043751;28;20402;-87
2020/12/16 10:13:12;;;;;;;40.53;6.17;;;21.10;99.90;;;;;;5054185;28;20386;-88
2020/12/16 10:15:39;;;;;;;41.43;5.60;;;21.10;99.90;;;;;;5040010;28;20438;-88
2020/12/16 10:18:06;;;;;;;34.85;5.95;;;21.10;99.90;;;;;;5026760;28;20396;-89
2020/12/16 10:20:33;;;;;;;44.10;5.82;;;21.10;99.90;;;;;;5048781;28;20502;-89
2020/12/16 10:23:02;;;;;;;42.38;6.57;;;21.10;99.90;;;;;;5049177;28;20425;-87
2020/12/16 10:25:30;;;;;;;41.75;6.57;;;21.20;99.90;;;;;;5049554;28;20438;-88
2020/12/16 10:27:58;;;;;;;47.47;6.72;;;21.20;99.90;;;;;;5042308;28;20396;-88
2020/12/16 10:30:26;;;;;;;40.42;6.72;;;21.10;99.90;;;;;;5044971;28;20395;-87
2020/12/16 10:32:57;;;;;;;40.72;6.18;;;21.20;99.90;;;;;;5041015;28;20439;-87
2020/12/16 10:35:24;;;;;;;45.65;6.88;;;21.20;99.90;;;;;;5034652;28;20400;-88
2020/12/16 10:37:52;;;;;;;39.90;6.45;;;21.20;99.90;;;;;;5048013;28;20400;-87
2020/12/16 10:40:19;;;;;;;41.60;6.03;;;21.20;99.90;;;;;;5048181;28;20411;-87
2020/12/16 10:42:47;;;;;;;41.10;6.82;;;21.20;99.90;;;;;;5049676;28;20441;-88
2020/12/16 10:45:14;;;;;;;45.95;7.00;;;21.20;99.90;;;;;;5045299;28;20412;-87
2020/12/16 10:47:42;;;;;;;46.17;7.15;;;21.20;99.90;;;;;;5049096;28;20466;-88
2020/12/16 10:50:10;;;;;;;40.22;6.45;;;21.20;99.90;;;;;;5049102;28;20376;-87
2020/12/16 10:52:37;;;;;;;40.95;6.90;;;21.20;99.90;;;;;;5031515;28;20384;-88
2020/12/16 10:55:04;;;;;;;40.17;7.35;;;21.20;99.90;;;;;;5049438;28;20407;-86
2020/12/16 10:57:31;;;;;;;39.13;7.03;;;21.20;99.90;;;;;;5049079;28;20426;-86
2020/12/16 10:59:58;;;;;;;44.58;7.53;;;21.20;99.90;;;;;;5049194;28;20402;-88
2020/12/16 11:02:26;;;;;;;41.20;6.65;;;21.20;99.90;;;;;;5050910;28;20489;-89
2020/12/16 11:04:53;;;;;;;41.30;7.05;;;21.20;99.90;;;;;;5051542;28;20482;-89
2020/12/16 11:07:20;;;;;;;43.40;6.97;;;21.30;99.90;;;;;;5045313;28;20400;-88
2020/12/16 11:09:47;;;;;;;40.60;6.75;;;21.30;99.90;;;;;;5045935;28;20395;-87
2020/12/16 11:12:14;;;;;;;43.38;7.22;;;21.30;99.90;;;;;;5047823;28;20403;-86
2020/12/16 11:14:40;;;;;;;45.63;7.03;;;21.20;99.90;;;;;;5055389;28;20434;-89
2020/12/16 11:17:09;;;;;;;43.25;6.50;;;21.20;99.90;;;;;;5048456;28;20380;-87
2020/12/16 11:19:36;;;;;;;46.65;7.03;;;21.20;99.90;;;;;;5010786;28;20470;-88
2020/12/16 11:22:04;;;;;;;50.33;6.97;;;21.20;99.90;;;;;;5030977;28;20488;-87
2020/12/16 11:24:31;;;;;;;46.10;7.00;;;21.20;99.90;;;;;;5058208;28;20395;-88
2020/12/16 11:26:58;;;;;;;41.10;7.07;;;21.20;99.90;;;;;;5042867;28;20399;-86
2020/12/16 11:29:25;;;;;;;41.33;7.45;;;21.20;99.90;;;;;;5038492;28;20397;-88
2020/12/16 11:31:57;;;;;;;45.42;6.88;;;21.20;99.90;;;;;;5040230;28;20541;-87
2020/12/16 11:34:26;;;;;;;42.30;7.05;;;21.20;99.90;;;;;;5060837;28;20394;-89
2020/12/16 11:36:56;;;;;;;43.30;7.25;;;21.20;99.90;;;;;;5066615;28;20403;-89
2020/12/16 11:39:24;;;;;;;46.45;6.75;;;21.20;99.90;;;;;;5050194;28;20403;-87
2020/12/16 11:41:53;;;;;;;38.00;6.60;;;21.20;99.90;;;;;;5049628;28;20394;-87
2020/12/16 11:44:22;;;;;;;48.03;7.18;;;21.10;99.90;;;;;;5059702;28;20482;-88
2020/12/16 11:46:49;;;;;;;37.88;6.32;;;21.10;99.90;;;;;;5043988;28;20415;-86
2020/12/16 11:49:18;;;;;;;48.20;7.53;;;21.10;99.90;;;;;;5047745;28;20395;-88
2020/12/16 11:51:45;;;;;;;46.13;6.97;;;21.10;99.90;;;;;;5032099;28;20408;-87
2020/12/16 11:54:12;;;;;;;44.57;6.97;;;21.10;99.90;;;;;;5048116;28;20490;-87
2020/12/16 11:56:39;;;;;;;50.73;7.57;;;21.10;99.90;;;;;;5047463;28;20396;-88
2020/12/16 11:59:06;;;;;;;52.97;7.57;;;21.10;99.90;;;;;;5053433;28;20545;-87
2020/12/16 12:01:33;;;;;;;38.22;7.63;;;21.10;99.90;;;;;;5036333;28;20400;-88
2020/12/16 12:04:00;;;;;;;47.22;7.85;;;21.10;99.90;;;;;;5056279;28;20416;-87
2020/12/16 12:06:28;;;;;;;43.75;7.07;;;21.10;99.90;;;;;;5070265;28;20394;-88
2020/12/16 12:08:55;;;;;;;39.65;6.63;;;21.10;99.90;;;;;;5048127;28;20407;-89
2020/12/16 12:11:22;;;;;;;46.90;7.60;;;21.10;99.90;;;;;;5036631;28;20405;-88
2020/12/16 12:13:49;;;;;;;41.88;6.55;;;21.10;99.90;;;;;;5048832;28;20399;-87
2020/12/16 12:16:17;;;;;;;41.33;6.20;;;21.10;99.90;;;;;;5044438;28;20472;-86
2020/12/16 12:18:44;;;;;;;36.40;6.35;;;21.00;99.90;;;;;;5062020;28;20418;-87
2020/12/16 12:21:16;;;;;;;46.00;6.97;;;21.10;99.90;;;;;;5048700;28;20490;-87
2020/12/16 12:23:43;;;;;;;43.45;7.00;;;21.10;99.90;;;;;;5047386;28;20407;-88
2020/12/16 12:26:10;;;;;;;38.90;6.68;;;21.10;99.90;;;;;;5047345;28;20422;-87
2020/12/16 12:28:37;;;;;;;35.88;6.47;;;21.10;99.90;;;;;;5045412;28;20387;-87
2020/12/16 12:31:04;;;;;;;45.70;7.32;;;21.10;99.90;;;;;;5051189;28;20423;-88
2020/12/16 12:33:31;;;;;;;43.10;7.03;;;21.10;99.90;;;;;;5064575;28;20371;-86
2020/12/16 12:35:59;;;;;;;45.67;7.30;;;21.10;99.90;;;;;;5038887;28;20540;-86
2020/12/16 12:38:27;;;;;;;40.78;6.10;;;21.10;99.90;;;;;;5044760;28;20417;-87
2020/12/16 12:40:54;;;;;;;42.97;6.32;;;21.00;99.90;;;;;;5061873;28;20412;-88
2020/12/16 12:43:21;;;;;;;36.33;6.10;;;21.10;99.90;;;;;;5053304;28;20398;-88
2020/12/16 12:45:48;;;;;;;33.37;6.07;;;21.00;99.90;;;;;;5048522;28;20927;-88
2020/12/16 12:48:15;;;;;;;38.92;6.10;;;21.10;99.90;;;;;;5056206;28;20374;-87
2020/12/16 12:50:42;;;;;;;45.92;6.70;;;21.10;99.90;;;;;;5055855;28;20988;-87